^^
Station Historical Data
Daily Summary for October 30, 2017 Units:  English    Metric   Both
« Previous Day
Next Day »
Daily Weekly Monthly Yearly Custom
  High: Low: Average:
Temperature: 64.2 °F 43.9 °F 51.8 °F
Dew Point: 63.1 °F 35.9 °F 43.3 °F
Humidity: 96% 51% 75%
Wind Speed: 12.0mph 0.0mph 4.4mph
Wind Gust: 26.0mph - -
Wind- - SSW
Pressure: 29.86 in 28.90 in -
Precipitation: 0.41 in    
Historical Graphs
 
 
Tabular Data for October 30, 2017
Time Temperature Dew Point Pressure Wind Wind Speed Wind Gust Humidity Rainfall Rate (Hourly) Conditions
00:00 64.2 °F 63.1 °F 28.90 in South 10.0 mph 20.0 mph 96% 0.00 in RA
00:20 59.9 °F 58.5 °F 28.93 in SW 6.0 mph 26.0 mph 95% 0.00 in BKN
00:30 59.6 °F 58.2 °F 28.96 in SW 5.0 mph 15.0 mph 95% 0.00 in BKN
00:40 59.7 °F 58.0 °F 28.99 in South 8.0 mph 16.0 mph 94% 0.00 in BKN
00:50 59.3 °F 57.0 °F 29.00 in SSW 5.0 mph 14.0 mph 92% 0.00 in BKN
01:00 58.4 °F 55.8 °F 29.00 in SW 3.0 mph 12.0 mph 91% 0.00 in BKN
01:10 57.7 °F 55.0 °F 29.01 in Calm   10.0 mph 91% 0.00 in BKN
01:20 57.2 °F 54.3 °F 29.00 in Calm   7.0 mph 90% 0.00 in BKN
01:30 56.7 °F 54.1 °F 29.01 in SSW 1.0 mph 4.0 mph 91% 0.00 in BKN
01:40 56.5 °F 53.9 °F 29.01 in SSE 1.0 mph 3.0 mph 91% 0.00 in BKN
01:50 56.3 °F 53.7 °F 29.02 in Calm   2.0 mph 91% 0.00 in BKN
02:00 56.3 °F 53.7 °F 29.04 in SSE 1.0 mph 4.0 mph 91% 0.00 in BKN
02:10 56.3 °F 53.7 °F 29.03 in Calm   3.0 mph 91% 0.00 in SCT
02:20 56.1 °F 53.8 °F 29.03 in Calm   1.0 mph 92% 0.00 in SCT
02:30 55.8 °F 53.5 °F 29.03 in Calm   1.0 mph 92% 0.00 in SCT
02:40 55.3 °F 53.0 °F 29.03 in Calm   1.0 mph 92% 0.00 in SCT
02:50 54.8 °F 52.8 °F 29.04 in Calm     93% 0.00 in SCT
03:00 54.4 °F 52.4 °F 29.06 in Calm   1.0 mph 93% 0.00 in SCT
03:10 54.3 °F 52.6 °F 29.06 in Calm   2.0 mph 94% 0.00 in SCT
03:20 54.5 °F 52.9 °F 29.06 in Calm   3.0 mph 94% 0.00 in SCT
03:30 54.9 °F 53.2 °F 29.05 in Calm   1.0 mph 94% 0.00 in SCT
03:40 54.8 °F 52.5 °F 29.05 in Calm   2.0 mph 92% 0.00 in SCT
03:50 55.0 °F 52.7 °F 29.05 in Calm   2.0 mph 92% 0.00 in SCT
04:00 55.2 °F 52.9 °F 29.05 in Calm   1.0 mph 92% 0.00 in SCT
04:10 54.9 °F 52.6 °F 29.04 in Calm   2.0 mph 92% 0.00 in -DZ
04:20 54.7 °F 52.4 °F 29.04 in NNE 1.0 mph 4.0 mph 92% 0.00 in -DZ
04:30 54.1 °F 51.8 °F 29.03 in Calm   5.0 mph 92% 0.00 in -DZ
04:40 53.6 °F 51.3 °F 29.03 in NE 1.0 mph 4.0 mph 92% 0.00 in -DZ
04:50 53.1 °F 51.1 °F 29.04 in North 2.0 mph 9.0 mph 93% 0.00 in -DZ
05:00 52.7 °F 50.5 °F 29.04 in NNW 1.0 mph 7.0 mph 92% 0.01 in -DZ
05:10 52.2 °F 50.2 °F 29.04 in Calm   9.0 mph 93% 0.03 in -RA
05:20 51.4 °F 49.5 °F 29.04 in NW 1.0 mph 10.0 mph 93% 0.03 in -RA
05:30 50.4 °F 48.7 °F 29.05 in North 5.0 mph 12.0 mph 94% 0.03 in -RA
05:40 49.8 °F 48.1 °F 29.05 in North 3.0 mph 12.0 mph 94% 0.01 in -RA
05:50 49.3 °F 47.6 °F 29.05 in NE 3.0 mph 9.0 mph 94% 0.01 in -RA
06:00 49.1 °F 47.7 °F 29.06 in ESE 1.0 mph 7.0 mph 95% 0.00 in -RA
06:10 48.9 °F 47.5 °F 29.08 in Calm   8.0 mph 95% 0.00 in -RA
06:20 48.4 °F 47.0 °F 29.08 in SE 2.0 mph 6.0 mph 95% 0.02 in -RA
06:30 48.0 °F 46.6 °F 29.10 in South 2.0 mph 8.0 mph 95% 0.05 in -RA
06:40 47.5 °F 46.1 °F 29.12 in SSW 6.0 mph 18.0 mph 95% 0.02 in -RA
06:50 47.3 °F 45.9 °F 29.13 in SE 2.0 mph 17.0 mph 95% 0.02 in -RA
07:00 47.1 °F 45.7 °F 29.14 in SW 7.0 mph 14.0 mph 95% 0.02 in -RA
07:10 46.9 °F 45.5 °F 29.16 in SSW 5.0 mph 15.0 mph 95% 0.01 in -RA
07:20 46.7 °F 45.3 °F 29.17 in SW 7.0 mph 12.0 mph 95% 0.02 in -RA
07:30 46.6 °F 45.3 °F 29.19 in SW 6.0 mph 14.0 mph 95% 0.03 in -RA
07:40 45.8 °F 44.2 °F 29.21 in SW 6.0 mph 18.0 mph 94% 0.03 in -RA
07:50 45.1 °F 43.5 °F 29.22 in SW 6.0 mph 14.0 mph 94% 0.02 in -RA
08:00 44.9 °F 43.3 °F 29.23 in South 3.0 mph 9.0 mph 94% 0.01 in -RA
08:10 44.7 °F 43.1 °F 29.25 in SW 3.0 mph 12.0 mph 94% 0.01 in -RA
08:20 44.4 °F 42.8 °F 29.26 in SSW 5.0 mph 14.0 mph 94% 0.01 in -RA
08:30 44.0 °F 42.4 °F 29.28 in SSW 5.0 mph 16.0 mph 94% 0.02 in -RA
08:40 43.9 °F 42.3 °F 29.29 in SW 7.0 mph 14.0 mph 94% 0.00 in -RA
08:50 44.1 °F 42.2 °F 29.31 in WSW 5.0 mph 13.0 mph 93% 0.00 in -RA
09:00 44.4 °F 41.4 °F 29.32 in South 3.0 mph 20.0 mph 89% 0.00 in -RA
09:10 44.9 °F 41.3 °F 29.33 in SSW 3.0 mph 13.0 mph 87% 0.00 in -RA
09:20 45.5 °F 41.3 °F 29.34 in SE 5.0 mph 15.0 mph 85% 0.00 in -RA
09:30 46.3 °F 41.1 °F 29.35 in South 5.0 mph 16.0 mph 82% 0.00 in -RA
09:40 46.8 °F 40.6 °F 29.36 in SSW 6.0 mph 21.0 mph 79% 0.00 in -RA
09:50 47.3 °F 41.1 °F 29.38 in SW 3.0 mph 14.0 mph 79% 0.00 in -RA
10:00 47.7 °F 41.2 °F 29.39 in SW 5.0 mph 20.0 mph 78% 0.00 in -RA
10:10 48.0 °F 40.5 °F 29.40 in SSW 7.0 mph 23.0 mph 75% 0.00 in BKN
10:20 48.2 °F 40.6 °F 29.41 in SW 6.0 mph 17.0 mph 75% 0.00 in BKN
10:30 48.4 °F 40.8 °F 29.42 in West 9.0 mph 15.0 mph 75% 0.00 in BKN
10:40 48.5 °F 40.9 °F 29.42 in SSW 5.0 mph 17.0 mph 75% 0.00 in BKN
10:50 48.7 °F 40.8 °F 29.43 in South 3.0 mph 16.0 mph 74% 0.00 in BKN
11:00 48.9 °F 41.3 °F 29.44 in SW 5.0 mph 20.0 mph 75% 0.00 in BKN
11:10 49.1 °F 40.8 °F 29.45 in SW 5.0 mph 17.0 mph 73% 0.00 in -RA
11:20 49.3 °F 41.0 °F 29.47 in SW 5.0 mph 16.0 mph 73% 0.00 in -RA
11:30 49.6 °F 40.9 °F 29.48 in SW 6.0 mph 17.0 mph 72% 0.00 in -RA
11:40 50.0 °F 40.6 °F 29.49 in SSW 6.0 mph 18.0 mph 70% 0.00 in -RA
11:50 50.4 °F 40.2 °F 29.50 in SW 6.0 mph 17.0 mph 68% 0.00 in -RA
12:00 50.9 °F 40.3 °F 29.51 in South 3.0 mph 12.0 mph 67% 0.00 in -RA
12:10 51.2 °F 39.5 °F 29.52 in SW 9.0 mph 25.0 mph 64% 0.00 in BKN
12:20 51.8 °F 39.2 °F 29.53 in WSW 7.0 mph 20.0 mph 62% 0.00 in BKN
12:30 52.5 °F 39.9 °F 29.53 in WSW 3.0 mph 15.0 mph 62% 0.00 in BKN
12:40 53.7 °F 40.1 °F 29.54 in West 8.0 mph 17.0 mph 60% 0.00 in BKN
12:50 53.3 °F 40.2 °F 29.54 in SW 6.0 mph 20.0 mph 61% 0.00 in BKN
13:00 54.3 °F 39.8 °F 29.55 in WSW 8.0 mph 18.0 mph 58% 0.00 in BKN
13:10 54.4 °F 38.5 °F 29.55 in SW 7.0 mph 21.0 mph 55% 0.00 in BKN
13:20 54.6 °F 38.7 °F 29.56 in SW 8.0 mph 18.0 mph 55% 0.00 in BKN
13:30 54.9 °F 39.0 °F 29.56 in WSW 7.0 mph 14.0 mph 55% 0.00 in BKN
13:40 54.4 °F 37.6 °F 29.57 in West 12.0 mph 20.0 mph 53% 0.00 in BKN
13:50 54.8 °F 37.0 °F 29.58 in SSW 10.0 mph 18.0 mph 51% 0.00 in BKN
14:00 55.1 °F 37.8 °F 29.58 in South 7.0 mph 20.0 mph 52% 0.00 in BKN
14:10 55.8 °F 38.9 °F 29.59 in WSW 7.0 mph 15.0 mph 53% 0.00 in SCT
14:20 55.0 °F 39.6 °F 29.60 in SSW 8.0 mph 22.0 mph 56% 0.00 in SCT
14:30 54.5 °F 39.6 °F 29.61 in SW 6.0 mph 18.0 mph 57% 0.00 in SCT
14:40 54.3 °F 39.4 °F 29.63 in SW 5.0 mph 15.0 mph 57% 0.00 in SCT
14:50 53.5 °F 38.6 °F 29.64 in WSW 5.0 mph 20.0 mph 57% 0.00 in SCT
15:10 53.2 °F 38.8 °F 29.65 in SW 7.0 mph 22.0 mph 58% 0.00 in BKN
15:20 53.6 °F 38.7 °F 29.65 in WSW 7.0 mph 18.0 mph 57% 0.00 in BKN
15:30 54.0 °F 38.6 °F 29.64 in WSW 5.0 mph 13.0 mph 56% 0.00 in BKN
15:40 54.4 °F 38.5 °F 29.65 in SW 5.0 mph 10.0 mph 55% 0.00 in BKN
16:00 54.0 °F 38.6 °F 29.67 in SW 3.0 mph 15.0 mph 56% 0.00 in BKN
16:10 54.1 °F 38.3 °F 29.67 in WSW 6.0 mph 12.0 mph 55% 0.00 in FEW
16:20 54.1 °F 37.8 °F 29.68 in SW 6.0 mph 15.0 mph 54% 0.00 in FEW
16:30 54.3 °F 37.5 °F 29.67 in WSW 3.0 mph 14.0 mph 53% 0.00 in FEW
16:40 54.4 °F 37.1 °F 29.68 in SSW 3.0 mph 14.0 mph 52% 0.00 in FEW
16:50 54.3 °F 37.0 °F 29.69 in SW 3.0 mph 14.0 mph 52% 0.00 in FEW
17:00 54.4 °F 37.6 °F 29.70 in SSW 5.0 mph 14.0 mph 53% 0.00 in FEW
17:10 54.3 °F 37.5 °F 29.70 in SW 5.0 mph 12.0 mph 53% 0.00 in FEW
17:20 54.0 °F 37.2 °F 29.71 in SW 6.0 mph 14.0 mph 53% 0.00 in FEW
17:30 53.7 °F 37.4 °F 29.72 in SW 5.0 mph 12.0 mph 54% 0.00 in FEW
17:40 53.2 °F 37.4 °F 29.72 in SW 3.0 mph 13.0 mph 55% 0.00 in FEW
17:49 52.6 °F 36.9 °F 29.73 in SW 2.0 mph 9.0 mph 55% 0.00 in RA
18:09 52.0 °F 37.2 °F 29.73 in SW 6.0 mph 10.0 mph 57% 0.00 in
18:29 51.6 °F 36.9 °F 29.74 in SSW 5.0 mph 12.0 mph 57% 0.00 in
18:49 51.2 °F 36.9 °F 29.75 in SW 2.0 mph 8.0 mph 58% 0.00 in
19:09 50.7 °F 37.3 °F 29.75 in SSW 2.0 mph 7.0 mph 60% 0.00 in
19:29 50.6 °F 37.2 °F 29.77 in SSW 3.0 mph 10.0 mph 60% 0.00 in
19:49 50.8 °F 36.5 °F 29.77 in SSW 5.0 mph 14.0 mph 58% 0.00 in
20:09 50.9 °F 36.6 °F 29.78 in SSW 3.0 mph 14.0 mph 58% 0.00 in
20:29 50.9 °F 36.6 °F 29.79 in SSW 3.0 mph 12.0 mph 58% 0.00 in
20:49 50.8 °F 36.1 °F 29.80 in SSW 8.0 mph 14.0 mph 57% 0.00 in
21:00 50.8 °F 36.6 °F 29.81 in SSW 8.0 mph 20.0 mph 58% 0.00 in FEW
21:10 50.8 °F 36.5 °F 29.81 in South 9.0 mph 16.0 mph 58% 0.00 in CLR
21:30 50.8 °F 36.1 °F 29.81 in SSW 6.0 mph 16.0 mph 57% 0.00 in CLR
21:40 50.8 °F 36.1 °F 29.82 in SSW 5.0 mph 17.0 mph 57% 0.00 in CLR
21:50 50.6 °F 36.4 °F 29.83 in South 5.0 mph 20.0 mph 58% 0.00 in CLR
21:59 50.5 °F 35.9 °F 29.83 in SSW 9.0 mph 17.0 mph 57% 0.00 in CLR
22:10 50.7 °F 36.4 °F 29.83 in SSW 8.0 mph 16.0 mph 58% 0.00 in CLR
22:20 50.5 °F 36.3 °F 29.83 in SSW 3.0 mph 17.0 mph 58% 0.00 in CLR
22:30 50.4 °F 36.6 °F 29.84 in SSW 9.0 mph 14.0 mph 59% 0.00 in CLR
22:40 50.1 °F 36.3 °F 29.84 in SW 7.0 mph 14.0 mph 59% 0.00 in CLR
22:50 50.1 °F 36.3 °F 29.84 in SSW 7.0 mph 15.0 mph 59% 0.00 in CLR
23:00 49.7 °F 36.4 °F 29.84 in SSW 7.0 mph 13.0 mph 60% 0.00 in CLR
23:10 49.8 °F 36.5 °F 29.85 in SSW 3.0 mph 12.0 mph 60% 0.00 in CLR
23:30 49.6 °F 36.3 °F 29.85 in SW 5.0 mph 14.0 mph 60% 0.00 in CLR
23:39 49.6 °F 36.3 °F 29.86 in SW 5.0 mph 14.0 mph 60% 0.00 in CLR
23:50 49.4 °F 36.5 °F 29.86 in SSW 6.0 mph 13.0 mph 61% 0.00 in CLR
TarryTown NY Weather
Compliments of Weather Underground - 1.75 mb